Time;durP1;ratioP1;P1;durP2;ratioP2;P2;SDS_P1;SDS_P2;PMS_P1;PMS_P2;Temp;Humidity;BMP_temperature;BMP_pressure;BME280_temperature;BME280_humidity;BME280_pressure;Samples;Min_cycle;Max_cycle;Signal;HPM_P1;HPM_P2
2022/12/19 00:01:47;;;;;;;33.00;16.65;;;;;;;-2.48;43.96;96104.00;4976680;28;20156;-71
2022/12/19 00:04:18;;;;;;;30.25;16.55;;;;;;;-2.47;44.51;96110.06;4979354;28;20650;-71
2022/12/19 00:06:44;;;;;;;26.77;15.20;;;;;;;-2.56;42.72;96104.41;4980810;28;20477;-71
2022/12/19 00:09:09;;;;;;;28.42;15.43;;;;;;;-2.67;44.13;96112.00;4977852;28;20091;-71
2022/12/19 00:11:35;;;;;;;23.45;13.38;;;;;;;-3.15;44.95;96110.97;4984372;28;20086;-71
2022/12/19 00:14:00;;;;;;;32.78;18.13;;;;;;;-2.68;43.68;96105.09;4980583;28;20556;-71
2022/12/19 00:16:27;;;;;;;30.77;16.40;;;;;;;-2.60;43.60;96110.72;4979069;28;20509;-71
2022/12/19 00:18:53;;;;;;;34.75;17.67;;;;;;;-2.42;43.36;96108.88;4978444;28;20107;-71
2022/12/19 00:21:20;;;;;;;30.92;16.70;;;;;;;-2.31;43.01;96102.22;4975727;28;20117;-71
2022/12/19 00:23:46;;;;;;;30.10;16.48;;;;;;;-2.58;44.00;96105.44;4978977;28;20082;-71
2022/12/19 00:26:21;;;;;;;33.40;16.17;;;;;;;-2.07;42.12;96092.16;4978695;28;20111;-71
2022/12/19 00:28:48;;;;;;;33.50;16.73;;;;;;;-2.34;43.53;96095.44;4977607;28;20132;-71
2022/12/19 00:31:15;;;;;;;30.27;16.88;;;;;;;-2.00;42.77;96097.91;4980247;28;20102;-71
2022/12/19 00:33:40;;;;;;;30.42;17.02;;;;;;;-2.32;42.84;96088.34;4985925;28;20498;-71
2022/12/19 00:36:09;;;;;;;31.38;17.35;;;;;;;-2.14;42.42;96090.84;4986651;28;20082;-75
2022/12/19 00:38:34;;;;;;;33.67;17.95;;;;;;;-2.19;43.13;96085.88;4980199;28;20123;-70
2022/12/19 00:41:30;;;;;;;33.85;17.35;;;;;;;-2.55;45.46;96092.25;4977504;28;20118;-71
2022/12/19 00:44:02;;;;;;;32.55;17.85;;;;;;;-2.54;44.84;96076.47;4976095;28;20182;-71
2022/12/19 00:46:28;;;;;;;32.33;16.75;;;;;;;-2.15;44.08;96068.28;4983639;28;20095;-71
2022/12/19 00:48:54;;;;;;;31.35;17.10;;;;;;;-1.99;43.30;96069.09;4984333;28;20326;-70
2022/12/19 00:51:21;;;;;;;32.97;17.90;;;;;;;-1.83;43.40;96078.66;4966106;28;20074;-71
2022/12/19 00:53:47;;;;;;;30.95;17.20;;;;;;;-1.97;43.19;96076.81;4982408;28;20515;-70
2022/12/19 00:56:14;;;;;;;30.65;17.30;;;;;;;-1.92;43.91;96076.56;4981737;28;20245;-71
2022/12/19 00:58:39;;;;;;;31.00;17.58;;;;;;;-2.03;43.25;96085.84;4982725;28;20209;-71
2022/12/19 01:01:11;;;;;;;30.50;17.17;;;;;;;-2.02;44.01;96086.69;4982512;28;20371;-70
2022/12/19 01:03:37;;;;;;;29.70;17.30;;;;;;;-2.15;44.54;96082.19;4974514;28;20435;-70
2022/12/19 01:06:02;;;;;;;33.75;17.90;;;;;;;-1.92;44.44;96077.41;4980413;28;20117;-69
2022/12/19 01:08:28;;;;;;;31.80;17.83;;;;;;;-2.32;44.21;96088.34;4984358;28;20570;-70
2022/12/19 01:10:53;;;;;;;33.03;17.23;;;;;;;-2.51;45.22;96081.53;4981744;28;20448;-70
2022/12/19 01:13:19;;;;;;;38.55;19.75;;;;;;;-2.36;46.86;96073.78;4981963;28;20083;-70
2022/12/19 01:15:44;;;;;;;37.50;21.20;;;;;;;-2.33;45.73;96073.63;4984087;28;20083;-69
2022/12/19 01:18:10;;;;;;;34.40;19.05;;;;;;;-2.29;46.69;96066.44;4982717;28;20595;-70
2022/12/19 01:20:39;;;;;;;38.08;20.65;;;;;;;-2.16;45.85;96070.06;4979759;28;20094;-69
2022/12/19 01:23:05;;;;;;;;;;;;;;;-2.15;45.72;96060.44;4983110;28;20122;-70
2022/12/19 01:25:32;;;;;;;34.22;16.70;;;;;;;-2.27;46.49;96049.78;4982471;28;20358;-71
2022/12/19 01:27:57;;;;;;;30.65;17.00;;;;;;;-2.09;45.42;96041.00;4981957;28;20352;-70
2022/12/19 01:30:23;;;;;;;33.80;19.33;;;;;;;-1.99;45.51;96037.78;4980292;28;20099;-71
2022/12/19 01:32:48;;;;;;;31.23;17.75;;;;;;;-1.96;45.18;96043.75;4982715;28;20086;-70
2022/12/19 01:35:14;;;;;;;33.83;18.95;;;;;;;-1.84;45.73;96043.03;4983265;28;20288;-69
2022/12/19 01:37:39;;;;;;;34.58;19.77;;;;;;;-1.61;45.62;96038.22;4981339;28;20107;-70
2022/12/19 01:40:05;;;;;;;32.45;19.20;;;;;;;-1.61;45.19;96033.00;4981892;28;20102;-70
2022/12/19 01:42:35;;;;;;;36.55;20.10;;;;;;;-1.61;44.45;96033.84;4982462;28;20165;-70
2022/12/19 01:45:06;;;;;;;35.33;19.35;;;;;;;-1.52;44.71;96040.25;4981151;28;20089;-70
2022/12/19 01:47:33;;;;;;;33.63;19.00;;;;;;;-1.44;44.43;96047.66;4983086;28;20551;-71
2022/12/19 01:49:58;;;;;;;35.22;19.33;;;;;;;-1.18;43.94;96060.06;4982786;28;20099;-71
2022/12/19 01:52:24;;;;;;;36.20;19.55;;;;;;;-1.61;44.40;96046.91;4967030;28;20097;-70
2022/12/19 01:54:49;;;;;;;31.20;18.52;;;;;;;-1.36;44.43;96047.19;4982298;28;20110;-70
2022/12/19 01:57:14;;;;;;;32.65;18.83;;;;;;;-1.48;44.03;96059.22;4983532;28;20106;-70
2022/12/19 01:59:42;;;;;;;34.95;19.63;;;;;;;-1.41;44.35;96051.84;4967306;28;20098;-70
2022/12/19 02:02:29;;;;;;;34.42;19.85;;;;;;;-1.34;44.28;96059.25;4981470;28;20114;-71
2022/12/19 02:04:54;;;;;;;32.65;19.08;;;;;;;-1.50;44.21;96061.94;4979433;28;20079;-70
2022/12/19 02:07:20;;;;;;;32.45;18.55;;;;;;;-1.42;45.11;96052.78;4984555;28;20082;-70
2022/12/19 02:09:46;;;;;;;34.60;20.35;;;;;;;-1.39;44.56;96058.66;4983464;28;20106;-70
2022/12/19 02:12:12;;;;;;;32.92;18.60;;;;;;;-1.43;44.84;96048.50;4967330;28;20563;-70
2022/12/19 02:14:37;;;;;;;32.10;18.60;;;;;;;-1.28;44.11;96047.59;4981588;28;20098;-70
2022/12/19 02:17:19;;;;;;;32.88;18.13;;;;;;;-1.48;44.37;96052.25;4980675;28;20106;-70
2022/12/19 02:20:09;;;;;;;34.13;19.17;;;;;;;-1.39;44.71;96027.31;4980556;28;20112;-71
2022/12/19 02:22:55;;;;;;;32.42;18.02;;;;;;;-1.46;44.45;96018.16;4982537;28;20615;-70
2022/12/19 02:25:31;;;;;;;30.85;17.20;;;;;;;-1.54;44.78;96013.41;4980953;28;20440;-69
2022/12/19 02:55:20;;;;;;;30.10;16.83;;;;;;;-1.40;45.10;95955.09;4969180;28;20141;-70
2022/12/19 02:58:12;;;;;;;31.65;16.33;;;;;;;-1.41;45.40;95953.44;4966928;28;20109;-70
2022/12/19 03:01:14;;;;;;;30.45;17.13;;;;;;;-1.42;44.34;95957.00;4965842;28;20610;-69
2022/12/19 03:03:51;;;;;;;31.48;17.00;;;;;;;-1.42;45.58;95971.81;4970770;28;20609;-70
2022/12/19 03:06:42;;;;;;;30.30;16.90;;;;;;;-1.51;45.73;95983.66;4979628;28;20106;-69
2022/12/19 03:09:14;;;;;;;26.83;15.68;;;;;;;-1.49;46.22;95976.59;4980530;28;20091;-70
2022/12/19 03:11:39;;;;;;;32.30;17.13;;;;;;;-1.36;45.10;95974.88;4980766;28;20090;-70
2022/12/19 03:14:06;;;;;;;34.33;17.80;;;;;;;-1.34;45.47;95974.78;4965150;28;20591;-70
2022/12/19 03:16:35;;;;;;;27.25;15.88;;;;;;;-1.60;46.22;95975.44;4984614;28;20086;-70
2022/12/19 03:19:01;;;;;;;27.95;16.55;;;;;;;-1.67;46.56;95981.16;4979175;28;20161;-70
2022/12/19 03:21:37;;;;;;;31.35;17.38;;;;;;;-1.54;46.08;95974.25;4964753;28;20572;-70
2022/12/19 03:24:04;;;;;;;30.90;17.20;;;;;;;-1.58;46.59;95977.97;4964931;28;20090;-70
2022/12/19 03:26:32;;;;;;;28.88;15.95;;;;;;;-1.48;45.90;95971.28;4979369;28;20113;-69
2022/12/19 03:29:16;;;;;;;29.17;16.98;;;;;;;-1.16;45.24;95972.00;4980618;28;20086;-70
2022/12/19 03:31:41;;;;;;;25.25;14.38;;;;;;;-1.18;44.67;95966.84;4983929;28;20091;-70
2022/12/19 03:34:19;;;;;;;30.13;16.90;;;;;;;-1.24;45.30;95962.00;4983431;28;20123;-70
2022/12/19 03:36:47;;;;;;;28.13;17.10;;;;;;;-1.23;45.22;95961.06;4977518;28;20101;-69
2022/12/19 03:39:12;;;;;;;28.75;15.27;;;;;;;-1.62;45.64;95973.88;4963682;28;20103;-70
2022/12/19 03:44:22;;;;;;;31.95;16.52;;;;;;;-1.32;45.24;95953.81;4969638;28;20097;-69
2022/12/19 03:46:53;;;;;;;29.27;16.52;;;;;;;-1.29;45.11;95951.00;4963621;28;20111;-69
2022/12/19 03:49:19;;;;;;;32.15;18.15;;;;;;;-1.28;45.25;95958.75;4979172;28;20101;-70
2022/12/19 03:51:51;;;;;;;32.05;16.88;;;;;;;-1.28;45.39;95953.53;4963206;28;20087;-70
2022/12/19 03:54:19;;;;;;;29.60;16.27;;;;;;;-1.28;45.23;95945.69;4978154;28;20119;-70
2022/12/19 03:57:02;;;;;;;29.95;16.75;;;;;;;-0.92;43.73;95946.09;4965967;28;20174;-69
2022/12/19 03:59:34;;;;;;;27.75;16.13;;;;;;;-1.20;45.09;95958.25;4980617;28;20111;-70
2022/12/19 04:02:00;;;;;;;30.27;16.30;;;;;;;-1.28;45.16;95942.22;4981624;28;20117;-70
2022/12/19 04:04:26;;;;;;;27.85;16.45;;;;;;;-1.32;46.21;95938.97;4978727;28;20079;-70
2022/12/19 04:06:51;;;;;;;29.77;16.38;;;;;;;-1.23;45.64;95930.53;4979745;28;20420;-70
2022/12/19 04:09:17;;;;;;;30.35;17.17;;;;;;;-1.17;45.53;95918.03;4963605;28;20160;-70
2022/12/19 04:11:45;;;;;;;29.27;16.52;;;;;;;-1.14;44.96;95920.44;4979632;28;20180;-70
2022/12/19 04:14:16;;;;;;;29.75;16.33;;;;;;;-1.38;45.98;95921.06;4979339;28;20634;-70
2022/12/19 04:16:46;;;;;;;31.75;16.00;;;;;;;-1.34;45.68;95927.75;4964422;28;20086;-70
2022/12/19 04:19:18;;;;;;;27.73;15.70;;;;;;;-1.23;46.19;95906.19;4979280;28;20839;-70
2022/12/19 04:21:47;;;;;;;27.20;15.32;;;;;;;-1.49;47.31;95904.28;4979483;28;20113;-69
2022/12/19 04:24:18;;;;;;;25.80;15.17;;;;;;;-1.19;46.52;95909.47;4978964;28;20581;-70
2022/12/19 04:26:44;;;;;;;25.98;14.65;;;;;;;-1.20;46.31;95903.38;4977473;28;20739;-70
2022/12/19 04:29:10;;;;;;;28.98;14.93;;;;;;;-1.52;47.33;95901.84;4965182;28;20173;-70
2022/12/19 04:31:35;;;;;;;24.80;14.23;;;;;;;-1.28;46.64;95906.50;4981988;28;20074;-69
2022/12/19 04:34:01;;;;;;;27.75;16.35;;;;;;;-1.18;46.33;95904.13;4979766;28;20105;-70
2022/12/19 04:36:26;;;;;;;28.88;16.48;;;;;;;-0.90;45.15;95906.78;4983637;28;20681;-70
2022/12/19 04:38:51;;;;;;;27.88;16.20;;;;;;;-0.82;45.87;95922.81;4982899;28;20102;-69
2022/12/19 04:41:17;;;;;;;30.70;16.98;;;;;;;-0.92;45.65;95925.16;4979945;28;20158;-70
2022/12/19 04:43:42;;;;;;;30.15;16.35;;;;;;;-1.18;46.42;95921.56;4978037;28;20079;-69
2022/12/19 04:46:07;;;;;;;30.33;17.42;;;;;;;-1.00;45.94;95920.41;4979960;28;20114;-69
2022/12/19 04:48:36;;;;;;;29.05;15.95;;;;;;;-1.25;46.73;95911.50;4983192;28;20085;-69
2022/12/19 04:51:02;;;;;;;25.60;14.00;;;;;;;-1.23;45.61;95917.47;4981052;28;20091;-69
2022/12/19 04:53:27;;;;;;;28.02;16.40;;;;;;;-1.16;45.70;95917.94;4977498;28;20654;-69
2022/12/19 04:56:00;;;;;;;30.95;16.25;;;;;;;-1.48;46.67;95918.19;4977756;28;20599;-70
2022/12/19 04:58:26;;;;;;;27.80;17.00;;;;;;;-1.48;46.41;95921.66;4979839;28;20103;-69
2022/12/19 05:00:51;;;;;;;27.35;15.60;;;;;;;-1.55;47.27;95919.50;4978632;28;20741;-70
2022/12/19 05:03:16;;;;;;;34.33;18.25;;;;;;;-1.19;46.38;95919.91;4978592;28;20102;-69
2022/12/19 05:05:42;;;;;;;29.75;16.85;;;;;;;-1.66;47.55;95912.31;4979398;28;20098;-69
2022/12/19 05:08:07;;;;;;;24.90;14.77;;;;;;;-1.39;47.01;95908.94;4975855;28;20091;-69
2022/12/19 05:10:33;;;;;;;30.45;16.75;;;;;;;-0.98;46.03;95904.63;4984582;28;20121;-70
2022/12/19 05:12:58;;;;;;;27.30;15.25;;;;;;;-1.15;46.95;95910.94;4980856;28;20292;-69
2022/12/19 05:15:23;;;;;;;24.05;14.20;;;;;;;-0.91;46.17;95899.88;4980929;28;20122;-69
2022/12/19 05:17:49;;;;;;;33.58;19.17;;;;;;;-1.50;48.06;95900.00;4984121;28;20230;-69
2022/12/19 05:20:14;;;;;;;29.60;17.00;;;;;;;-1.54;47.92;95903.72;4986861;28;20591;-68
2022/12/19 05:22:40;;;;;;;34.72;18.58;;;;;;;-1.50;48.62;95909.59;4984483;28;20560;-69
2022/12/19 05:25:05;;;;;;;28.27;15.63;;;;;;;-1.88;49.36;95911.88;4979518;28;20090;-69
2022/12/19 05:27:31;;;;;;;27.67;15.50;;;;;;;-1.55;48.60;95904.66;4984160;28;20168;-69
2022/12/19 05:29:56;;;;;;;26.05;14.70;;;;;;;-1.35;47.52;95899.97;4985039;28;20603;-69
2022/12/19 05:32:22;;;;;;;26.92;15.65;;;;;;;-1.23;47.30;95916.63;4985978;28;20083;-70
2022/12/19 05:34:47;;;;;;;27.02;15.02;;;;;;;-1.44;48.30;95916.19;4987725;28;20102;-69
2022/12/19 05:37:12;;;;;;;24.92;14.52;;;;;;;-1.19;47.31;95906.84;4981599;28;20099;-70
2022/12/19 05:39:38;;;;;;;28.05;15.25;;;;;;;-0.75;46.85;95923.25;4987337;28;20098;-69
2022/12/19 05:42:03;;;;;;;25.33;15.35;;;;;;;-1.12;47.45;95926.44;4985055;28;20114;-69
2022/12/19 05:44:29;;;;;;;25.17;14.18;;;;;;;-1.34;48.11;95917.31;4984897;28;20086;-70
2022/12/19 05:46:54;;;;;;;21.48;12.77;;;;;;;-1.24;48.03;95926.25;4983398;28;20107;-70
2022/12/19 05:49:19;;;;;;;24.23;14.05;;;;;;;-1.23;48.09;95929.69;4986400;28;20582;-70
2022/12/19 05:51:45;;;;;;;23.30;13.60;;;;;;;-1.11;47.42;95915.84;4985433;28;20164;-69
2022/12/19 05:54:10;;;;;;;24.67;13.90;;;;;;;-0.94;47.17;95914.00;4980892;28;20098;-69
2022/12/19 05:56:36;;;;;;;27.83;15.23;;;;;;;-0.99;46.88;95924.69;4984230;28;20094;-70
2022/12/19 05:59:01;;;;;;;20.80;12.93;;;;;;;-0.74;47.13;95925.75;4983009;28;20486;-70
2022/12/19 06:01:27;;;;;;;29.58;17.30;;;;;;;-2.13;50.27;95935.97;4983799;28;20123;-69
2022/12/19 06:03:53;;;;;;;22.60;13.68;;;;;;;-1.31;48.73;95927.59;4983608;28;20070;-69
2022/12/19 06:06:20;;;;;;;21.92;13.82;;;;;;;-1.23;48.46;95934.91;4984867;28;20106;-69
2022/12/19 06:08:46;;;;;;;23.27;13.02;;;;;;;-1.09;48.04;95929.69;4984502;28;20082;-69
2022/12/19 06:11:12;;;;;;;22.20;13.07;;;;;;;-1.00;48.22;95932.63;4983349;28;20103;-69
2022/12/19 06:13:37;;;;;;;20.88;13.45;;;;;;;-0.68;47.08;95940.22;4983831;28;20630;-69
2022/12/19 06:16:07;;;;;;;18.95;11.23;;;;;;;-0.57;47.21;95937.72;4984085;28;20675;-69
2022/12/19 06:18:32;;;;;;;20.15;12.77;;;;;;;-0.55;46.42;95923.75;4983305;28;20173;-70
2022/12/19 06:20:58;;;;;;;24.50;14.60;;;;;;;-0.38;47.15;95946.16;4983930;28;20106;-69
2022/12/19 06:23:24;;;;;;;19.45;12.20;;;;;;;-0.54;46.78;95941.09;4979977;28;20593;-69
2022/12/19 06:25:49;;;;;;;17.33;11.02;;;;;;;-1.42;49.22;95950.91;4982771;28;20099;-69
2022/12/19 06:28:14;;;;;;;19.70;11.65;;;;;;;-0.95;48.84;95943.66;4982870;28;20086;-70
2022/12/19 06:30:40;;;;;;;17.50;11.13;;;;;;;-0.50;48.45;95959.13;4984125;28;20467;-70
2022/12/19 06:33:05;;;;;;;16.40;10.07;;;;;;;-0.46;47.49;95938.81;4983977;28;20091;-69
2022/12/19 06:35:31;;;;;;;21.23;11.70;;;;;;;-0.51;47.71;95941.72;4984977;28;20091;-70
2022/12/19 06:37:56;;;;;;;22.42;13.85;;;;;;;-0.25;47.55;95946.19;4983275;28;20107;-70
2022/12/19 06:43:05;;;;;;;16.73;11.07;;;;;;;-0.21;47.16;95952.88;4985008;28;20585;-70
2022/12/19 06:45:31;;;;;;;17.55;10.25;;;;;;;-0.37;46.78;95964.38;4975390;28;20099;-70
2022/12/19 06:47:56;;;;;;;18.65;11.88;;;;;;;-0.25;47.49;95960.13;4981231;28;20087;-70
2022/12/19 06:50:22;;;;;;;15.85;9.82;;;;;;;-0.57;46.22;95942.16;4982242;28;20615;-70
2022/12/19 06:52:47;;;;;;;17.77;11.18;;;;;;;-0.80;47.18;95938.41;4986556;28;20490;-70
2022/12/19 06:55:12;;;;;;;17.88;11.95;;;;;;;-0.37;46.39;95943.44;4981985;28;20134;-70
2022/12/19 06:57:44;;;;;;;17.70;11.63;;;;;;;-0.16;45.29;95937.72;4982559;28;20976;-70
2022/12/19 07:00:11;;;;;;;18.75;12.13;;;;;;;-0.02;45.37;95952.50;4985289;28;20607;-69
2022/12/19 07:02:37;;;;;;;18.40;11.73;;;;;;;0.28;45.95;95946.09;4980642;28;20190;-70
2022/12/19 07:05:04;;;;;;;19.02;11.73;;;;;;;0.06;46.32;95960.69;4982012;28;20544;-69
2022/12/19 07:07:29;;;;;;;20.38;12.23;;;;;;;-0.20;46.72;95954.59;4982979;28;20083;-70
2022/12/19 07:09:55;;;;;;;19.30;12.85;;;;;;;-0.36;47.92;95954.75;4985405;28;20099;-69
2022/12/19 07:12:21;;;;;;;19.02;12.38;;;;;;;-1.06;50.50;95939.09;4968212;28;20093;-69
2022/12/19 07:14:46;;;;;;;21.02;12.98;;;;;;;-0.44;48.86;95948.25;4980489;28;20115;-69
2022/12/19 07:17:12;;;;;;;25.00;15.48;;;;;;;-0.47;48.95;95932.75;4982380;28;20083;-70
2022/12/19 07:19:37;;;;;;;25.70;14.48;;;;;;;-0.57;47.68;95934.31;4980221;28;20094;-70
2022/12/19 07:22:02;;;;;;;28.75;17.83;;;;;;;-0.93;50.00;95946.19;4983622;28;20094;-69
2022/12/19 07:24:28;;;;;;;27.95;17.63;;;;;;;-0.95;50.95;95947.13;4983690;28;20085;-69
2022/12/19 07:26:53;;;;;;;25.80;15.15;;;;;;;-0.31;48.91;95948.28;4979947;28;20222;-69
2022/12/19 07:29:19;;;;;;;27.77;17.55;;;;;;;-0.43;49.61;95963.00;4981675;28;20348;-70
2022/12/19 07:31:44;;;;;;;29.10;17.52;;;;;;;-0.35;47.63;95957.25;4983998;28;20081;-69
2022/12/19 07:34:09;;;;;;;30.15;18.02;;;;;;;-2.06;54.60;95979.06;4981991;28;20111;-69
2022/12/19 07:36:35;;;;;;;26.00;14.75;;;;;;;-0.60;49.32;95966.69;4981624;28;20641;-69
2022/12/19 07:39:00;;;;;;;27.95;17.75;;;;;;;-0.18;48.60;95971.84;4982139;28;20103;-69
2022/12/19 07:41:26;;;;;;;28.98;17.45;;;;;;;-0.34;49.20;95973.81;4983651;28;20340;-69
2022/12/19 07:43:51;;;;;;;30.98;18.30;;;;;;;-0.15;48.83;95972.56;4982215;28;20106;-69
2022/12/19 07:46:17;;;;;;;31.52;18.88;;;;;;;-0.87;49.85;95974.56;4981808;28;20114;-69
2022/12/19 07:48:42;;;;;;;32.63;19.00;;;;;;;-0.46;49.95;95976.28;4984156;28;20613;-69
2022/12/19 07:51:07;;;;;;;29.40;18.20;;;;;;;-0.19;47.96;95969.34;4979048;28;20102;-70
2022/12/19 07:53:33;;;;;;;29.50;16.67;;;;;;;-0.08;46.79;95971.22;4982563;28;20114;-70
2022/12/19 07:55:58;;;;;;;27.70;17.08;;;;;;;0.02;46.40;95968.84;4983039;28;20176;-69
2022/12/19 07:58:23;;;;;;;29.80;16.77;;;;;;;0.30;47.37;95964.34;4983116;28;20102;-70
2022/12/19 08:00:56;;;;;;;31.10;18.08;;;;;;;0.09;48.08;95975.34;4980028;28;20574;-70
2022/12/19 08:03:22;;;;;;;31.00;17.77;;;;;;;-0.13;47.23;95945.34;4980098;28;20098;-70
2022/12/19 08:05:47;;;;;;;31.90;19.48;;;;;;;-0.50;50.25;95974.81;4982498;28;20110;-70
2022/12/19 08:08:13;;;;;;;33.88;20.63;;;;;;;-0.46;49.68;95980.69;4980748;28;20087;-69
2022/12/19 08:10:38;;;;;;;30.65;18.60;;;;;;;-0.34;49.98;95973.81;4983067;28;20466;-69
2022/12/19 08:13:03;;;;;;;31.63;19.40;;;;;;;-0.26;48.48;95966.28;4976830;28;20516;-69
2022/12/19 08:15:29;;;;;;;30.88;19.10;;;;;;;0.25;48.33;95974.31;4980935;28;20081;-69
2022/12/19 08:17:54;;;;;;;31.48;18.10;;;;;;;0.50;46.98;95972.59;4980771;28;20105;-69
2022/12/19 08:20:20;;;;;;;31.60;17.63;;;;;;;0.31;48.03;95974.72;4983484;28;20125;-69
2022/12/19 08:22:45;;;;;;;30.23;18.63;;;;;;;0.39;47.26;95961.09;4983363;28;20460;-69
2022/12/19 08:25:12;;;;;;;30.55;17.80;;;;;;;0.57;47.23;95968.63;4982888;28;20523;-69
2022/12/19 08:27:37;;;;;;;31.90;19.00;;;;;;;-0.01;47.60;95972.50;4979842;28;20561;-69
2022/12/19 08:30:03;;;;;;;31.48;18.60;;;;;;;0.56;46.63;95962.56;4982195;28;20098;-69
2022/12/19 08:32:28;;;;;;;31.10;20.20;;;;;;;-0.38;51.11;95983.63;4981380;28;20190;-69
2022/12/19 08:34:55;;;;;;;33.20;19.55;;;;;;;0.44;47.86;95981.72;4983124;28;20107;-69
2022/12/19 08:37:21;;;;;;;31.77;17.25;;;;;;;0.70;48.49;95981.72;4980394;28;20149;-69
2022/12/19 08:39:46;;;;;;;33.55;21.48;;;;;;;1.05;44.82;95967.06;4981203;28;20276;-69
2022/12/19 08:42:12;;;;;;;30.63;19.25;;;;;;;0.51;47.55;95980.38;4981653;28;20161;-71
2022/12/19 08:44:37;;;;;;;32.30;20.50;;;;;;;0.78;46.44;95968.09;4982295;28;20352;-69
2022/12/19 08:47:03;;;;;;;33.60;20.63;;;;;;;0.73;47.24;95969.22;4983980;28;20115;-69
2022/12/19 08:49:28;;;;;;;34.90;21.58;;;;;;;0.89;45.13;95976.00;4981864;28;20118;-69
2022/12/19 08:51:54;;;;;;;29.92;19.00;;;;;;;0.45;48.74;95972.94;4980384;28;20447;-68
2022/12/19 08:54:19;;;;;;;31.80;19.98;;;;;;;0.64;46.44;95967.25;4983181;28;20126;-68
2022/12/19 08:56:45;;;;;;;25.95;16.05;;;;;;;-0.44;53.17;95974.41;4984652;28;20098;-68
2022/12/19 08:59:10;;;;;;;36.45;21.80;;;;;;;-0.11;50.15;95961.81;4985895;28;20560;-69
2022/12/19 09:01:36;;;;;;;27.88;16.02;;;;;;;0.47;49.18;95943.06;4984274;28;20107;-69
2022/12/19 09:04:01;;;;;;;27.00;15.05;;;;;;;0.86;49.08;95957.91;4983702;28;20535;-68
2022/12/19 09:06:26;;;;;;;30.20;18.80;;;;;;;0.89;47.98;95944.53;4987142;28;20404;-69
2022/12/19 09:08:52;;;;;;;25.65;16.40;;;;;;;0.59;49.50;95966.75;4986190;28;20114;-69
2022/12/19 09:11:18;;;;;;;38.55;23.30;;;;;;;-0.40;51.74;95954.13;4986218;28;20111;-69
2022/12/19 09:13:44;;;;;;;22.85;14.00;;;;;;;0.42;50.85;95960.06;4985777;28;20095;-69
2022/12/19 09:16:17;;;;;;;26.65;16.10;;;;;;;0.77;48.87;95940.19;4982773;28;20150;-68
2022/12/19 09:18:46;;;;;;;27.35;16.73;;;;;;;0.77;49.86;95954.13;4982986;28;20157;-68
2022/12/19 09:21:12;;;;;;;31.67;18.23;;;;;;;0.23;50.47;95944.75;4979113;28;20114;-69
2022/12/19 09:23:38;;;;;;;26.55;16.17;;;;;;;0.33;51.04;95958.91;4986748;28;20069;-69
2022/12/19 09:26:06;;;;;;;30.58;18.45;;;;;;;1.00;48.52;95954.28;4984410;28;20175;-69
2022/12/19 09:28:32;;;;;;;32.00;20.65;;;;;;;1.02;46.08;95959.44;4983447;28;20098;-69
2022/12/19 09:31:08;;;;;;;30.88;18.48;;;;;;;1.33;46.92;95968.53;4985413;28;20169;-69
2022/12/19 09:33:34;;;;;;;27.15;16.05;;;;;;;1.29;46.05;95953.16;4986385;28;20108;-69
2022/12/19 09:36:00;;;;;;;33.15;19.08;;;;;;;1.57;46.24;95954.59;4985104;28;20083;-69
2022/12/19 09:38:26;;;;;;;32.95;20.52;;;;;;;1.79;44.35;95949.53;4982492;28;20109;-68
2022/12/19 09:41:13;;;;;;;27.23;16.23;;;;;;;-0.43;53.11;95959.56;4986515;28;20105;-69
2022/12/19 09:44:00;;;;;;;26.23;17.50;;;;;;;1.16;47.29;95951.38;4982970;28;20103;-69
2022/12/19 09:46:49;;;;;;;30.27;19.65;;;;;;;1.56;45.82;95952.09;4986084;28;20166;-69
2022/12/19 09:49:25;;;;;;;29.40;18.38;;;;;;;1.86;45.79;95954.22;4983909;28;20083;-69
2022/12/19 09:52:05;;;;;;;30.25;17.88;;;;;;;1.94;44.28;95937.88;4985601;28;20344;-69
2022/12/19 09:54:40;;;;;;;33.03;18.75;;;;;;;1.85;44.80;95952.56;4978776;28;20111;-69
2022/12/19 09:57:22;;;;;;;28.40;19.15;;;;;;;2.06;43.66;95941.38;4984144;28;20287;-69
2022/12/19 09:59:56;;;;;;;26.33;15.48;;;;;;;2.29;44.30;95944.06;4986685;28;20125;-69
2022/12/19 10:02:44;;;;;;;28.35;18.25;;;;;;;2.39;43.99;95934.50;4982372;28;20113;-69
2022/12/19 10:05:30;;;;;;;27.85;16.67;;;;;;;2.28;44.89;95942.34;4982525;28;20071;-69
2022/12/19 10:07:55;;;;;;;32.60;18.02;;;;;;;2.18;44.27;95934.34;4984934;28;20083;-68
2022/12/19 10:10:27;;;;;;;26.25;16.83;;;;;;;2.30;44.68;95943.09;4984855;28;20102;-69
2022/12/19 10:12:57;;;;;;;37.17;20.52;;;;;;;2.50;42.82;95938.09;4981399;28;20493;-69
2022/12/19 10:15:28;;;;;;;33.95;21.55;;;;;;;2.45;41.98;95933.19;4983904;28;20521;-69
2022/12/19 10:18:04;;;;;;;29.35;18.88;;;;;;;2.36;44.32;95929.50;4981476;28;20171;-69
2022/12/19 10:20:34;;;;;;;27.77;18.30;;;;;;;2.47;43.77;95928.66;4984690;28;20610;-68
2022/12/19 10:23:18;;;;;;;24.17;15.05;;;;;;;2.61;43.84;95924.09;4966054;28;20626;-68
2022/12/19 10:26:13;;;;;;;31.70;18.98;;;;;;;2.55;44.26;95921.97;4985334;28;20846;-69
2022/12/19 10:29:12;;;;;;;28.45;17.60;;;;;;;2.55;42.76;95911.44;4983365;28;20086;-69
2022/12/19 10:31:47;;;;;;;30.02;19.35;;;;;;;2.62;42.99;95905.56;4983797;28;20097;-69
2022/12/19 10:34:20;;;;;;;27.58;18.00;;;;;;;2.67;42.01;95907.84;4967490;28;20110;-68
2022/12/19 10:36:56;;;;;;;32.90;21.65;;;;;;;2.73;42.86;95896.81;4983317;28;20090;-69
2022/12/19 10:39:27;;;;;;;33.35;20.70;;;;;;;2.81;42.59;95895.38;4966423;28;20542;-68
2022/12/19 10:41:55;;;;;;;28.00;18.38;;;;;;;2.83;42.51;95896.13;4981875;28;20204;-69
2022/12/19 10:44:20;;;;;;;29.77;19.60;;;;;;;2.88;43.14;95897.41;4966601;28;20077;-68
2022/12/19 10:46:47;;;;;;;28.45;18.50;;;;;;;2.84;43.55;95888.09;4985705;28;20111;-69
2022/12/19 10:49:16;;;;;;;30.73;19.92;;;;;;;3.03;42.76;95887.44;4978420;28;20574;-69
2022/12/19 10:51:42;;;;;;;33.92;20.45;;;;;;;2.96;42.14;95886.28;4984670;28;20581;-69
2022/12/19 10:54:08;;;;;;;32.22;20.92;;;;;;;2.82;41.83;95882.13;4985361;28;20129;-69
2022/12/19 10:56:33;;;;;;;34.78;22.52;;;;;;;2.76;41.55;95880.81;4980230;28;20429;-69
2022/12/19 10:59:00;;;;;;;32.88;21.40;;;;;;;2.83;42.11;95881.19;4981110;28;20654;-69
2022/12/19 11:01:36;;;;;;;34.15;21.83;;;;;;;2.83;42.17;95873.28;4982786;28;20122;-69
2022/12/19 11:04:21;;;;;;;38.33;24.13;;;;;;;2.70;43.42;95869.97;4980789;28;20090;-70
2022/12/19 11:07:01;;;;;;;36.55;22.50;;;;;;;2.59;41.87;95868.19;4983060;28;20554;-70
2022/12/19 11:09:37;;;;;;;30.85;20.15;;;;;;;2.52;42.44;95867.84;4981378;28;20118;-70
2022/12/19 11:12:16;;;;;;;27.83;18.23;;;;;;;2.61;42.66;95863.63;4984796;28;20074;-69
2022/12/19 11:14:49;;;;;;;39.25;25.42;;;;;;;2.63;41.19;95861.72;4983210;28;20102;-69
2022/12/19 11:17:30;;;;;;;33.78;20.42;;;;;;;2.60;43.68;95854.06;4982868;28;20173;-70
2022/12/19 11:19:56;;;;;;;31.42;18.38;;;;;;;2.68;42.45;95856.13;4980616;28;20563;-69
2022/12/19 11:22:27;;;;;;;28.95;18.90;;;;;;;2.76;42.43;95857.16;4981572;28;20704;-70
2022/12/19 11:24:53;;;;;;;34.35;21.77;;;;;;;2.93;42.64;95846.25;4981461;28;20526;-70
2022/12/19 11:27:41;;;;;;;33.53;21.20;;;;;;;2.72;42.57;95842.56;4966614;28;20117;-70
2022/12/19 11:30:19;;;;;;;30.77;19.85;;;;;;;2.88;42.46;95846.59;4981080;28;20114;-69
2022/12/19 11:32:46;;;;;;;27.63;18.08;;;;;;;2.85;43.58;95845.06;4979781;28;20090;-70
2022/12/19 11:35:23;;;;;;;29.77;18.98;;;;;;;2.75;43.94;95841.50;4982210;28;20494;-70
2022/12/19 11:37:49;;;;;;;34.13;20.00;;;;;;;2.91;42.46;95847.22;4980420;28;20117;-70
2022/12/19 11:40:42;;;;;;;33.55;22.08;;;;;;;2.97;41.80;95843.25;4981277;28;20098;-69
2022/12/19 11:43:12;;;;;;;33.63;20.58;;;;;;;2.93;42.40;95839.19;4979262;28;20619;-69
2022/12/19 11:45:52;;;;;;;35.17;22.50;;;;;;;2.96;42.05;95838.09;4966186;28;20190;-69
2022/12/19 11:48:44;;;;;;;31.40;20.13;;;;;;;2.85;42.18;95836.31;4980761;28;20085;-69
2022/12/19 11:51:24;;;;;;;27.77;17.33;;;;;;;2.99;42.28;95838.69;4981752;28;20336;-70
2022/12/19 11:54:01;;;;;;;29.90;18.98;;;;;;;2.85;44.06;95844.22;4978826;28;20188;-68
2022/12/19 11:56:27;;;;;;;32.45;22.13;;;;;;;2.84;42.36;95851.28;4980288;28;20212;-68
2022/12/19 11:58:55;;;;;;;26.17;16.90;;;;;;;2.68;43.03;95835.09;4967275;28;20110;-68
2022/12/19 12:01:24;;;;;;;31.67;20.38;;;;;;;2.59;43.40;95836.66;4979344;28;20468;-67